Terminal Aerodrome Forecast
Issued by NWS

Home | Current Version | Previous Version | Text Only | Print | Product List | Glossary Off
Versions: 1 2 3 4 5 6 7 8 9 10 11 12 13 14 15 16 17 18 19 20 21 22 23 24 25 26 27

000
FTUS43 KGRB 241100 AAB
TAFMTW
TAF AMD
KMTW 241100Z 2411/2506 VRB03KT 5SM BR OVC008
      TEMPO 2412/2414 1SM -DZ BR OVC004
     FM241500 01007KT 4SM BR OVC008
     FM241700 01010G15KT 6SM BR OVC012
     FM242000 36013G22KT 6SM -RASN OVC016
     FM242300 35014G23KT 4SM -SN SCT012 OVC020=

USA.gov is the U.S. government's official web portal to all federal, state and local government web resources and services.